Time;durP1;ratioP1;P1;durP2;ratioP2;P2;SDS_P1;SDS_P2;PMS_P1;PMS_P2;Temp;Humidity;BMP_temperature;BMP_pressure;BME280_temperature;BME280_humidity;BME280_pressure;Samples;Min_cycle;Max_cycle;Signal;HPM_P1;HPM_P2
2021/03/07 00:00:24;;;;;;;12.65;9.57;;;;;;;;;;1044239;28;20049;-75
2021/03/07 00:00:55;;;;;;;16.23;9.30;;;;;;;;;;1044412;28;20049;-75
2021/03/07 00:01:27;;;;;;;13.90;9.98;;;;;;;;;;1042350;28;20178;-75
2021/03/07 00:01:58;;;;;;;14.85;9.57;;;;;;;;;;1036424;28;20430;-75
2021/03/07 00:02:29;;;;;;;14.05;10.18;;;;;;;;;;1042295;28;20053;-75
2021/03/07 00:03:00;;;;;;;11.75;8.77;;;;;;;;;;1036296;28;20455;-76
2021/03/07 00:03:31;;;;;;;12.23;8.13;;;;;;;;;;1037413;28;20049;-75
2021/03/07 00:04:03;;;;;;;13.85;8.57;;;;;;;;;;1036788;28;20054;-76
2021/03/07 00:04:34;;;;;;;11.60;7.47;;;;;;;;;;1040234;28;20057;-76
2021/03/07 00:05:07;;;;;;;15.23;8.75;;;;;;;;;;1040620;28;20057;-75
2021/03/07 00:05:38;;;;;;;11.15;7.97;;;;;;;;;;1036351;28;20045;-75
2021/03/07 00:06:09;;;;;;;13.98;9.50;;;;;;;;;;1040303;28;20053;-75
2021/03/07 00:06:40;;;;;;;15.75;8.15;;;;;;;;;;1035609;28;20050;-75
2021/03/07 00:07:11;;;;;;;14.98;9.98;;;;;;;;;;1032613;28;20908;-75
2021/03/07 00:07:43;;;;;;;11.88;8.13;;;;;;;;;;1036253;28;20434;-75
2021/03/07 00:08:14;;;;;;;13.25;8.80;;;;;;;;;;1037258;28;20502;-75
2021/03/07 00:08:45;;;;;;;27.35;16.38;;;;;;;;;;1036980;28;20521;-75
2021/03/07 00:09:24;;;;;;;25.75;13.70;;;;;;;;;;1037210;28;20054;-76
2021/03/07 00:09:55;;;;;;;21.67;12.30;;;;;;;;;;1044736;28;20057;-75
2021/03/07 00:10:26;;;;;;;16.27;10.70;;;;;;;;;;1040255;28;20077;-75
2021/03/07 00:10:57;;;;;;;10.75;7.28;;;;;;;;;;1040301;28;20045;-75
2021/03/07 00:11:28;;;;;;;9.45;5.63;;;;;;;;;;1036632;28;20050;-75
2021/03/07 00:11:59;;;;;;;10.07;6.97;;;;;;;;;;1037098;28;20188;-76
2021/03/07 00:12:30;;;;;;;7.80;5.25;;;;;;;;;;1040096;28;20056;-75
2021/03/07 00:13:01;;;;;;;7.55;4.60;;;;;;;;;;1040654;28;20045;-75
2021/03/07 00:13:32;;;;;;;6.38;5.65;;;;;;;;;;1044562;28;20053;-75
2021/03/07 00:14:03;;;;;;;5.65;4.95;;;;;;;;;;1040631;28;20045;-75
2021/03/07 00:14:34;;;;;;;5.45;4.32;;;;;;;;;;1040549;28;20057;-75
2021/03/07 00:15:07;;;;;;;6.97;4.47;;;;;;;;;;1043994;28;20106;-75
2021/03/07 00:15:39;;;;;;;12.70;5.43;;;;;;;;;;1040627;28;20052;-75
2021/03/07 00:16:09;;;;;;;7.65;5.93;;;;;;;;;;1044464;28;20075;-75
2021/03/07 00:16:40;;;;;;;5.88;5.10;;;;;;;;;;1040782;28;20057;-75
2021/03/07 00:17:12;;;;;;;8.52;4.40;;;;;;;;;;1040742;28;20132;-75
2021/03/07 00:17:44;;;;;;;7.07;4.97;;;;;;;;;;1040548;28;20049;-75
2021/03/07 00:18:15;;;;;;;7.60;4.93;;;;;;;;;;1044555;28;20053;-75
2021/03/07 00:18:46;;;;;;;7.90;5.10;;;;;;;;;;1037127;28;20053;-75
2021/03/07 00:19:18;;;;;;;12.55;5.30;;;;;;;;;;1036797;28;20184;-75
2021/03/07 00:19:49;;;;;;;7.43;4.43;;;;;;;;;;1043633;28;20052;-76
2021/03/07 00:20:22;;;;;;;8.70;5.22;;;;;;;;;;1044741;28;20053;-75
2021/03/07 00:20:53;;;;;;;4.63;4.00;;;;;;;;;;1040954;28;20429;-75
2021/03/07 00:21:24;;;;;;;7.22;3.83;;;;;;;;;;1041200;28;20544;-75
2021/03/07 00:21:55;;;;;;;7.72;4.10;;;;;;;;;;1043689;28;20045;-75
2021/03/07 00:22:26;;;;;;;5.78;4.80;;;;;;;;;;1041134;28;20068;-76
2021/03/07 00:22:57;;;;;;;13.88;6.32;;;;;;;;;;1040644;28;20052;-75
2021/03/07 00:23:28;;;;;;;10.57;6.03;;;;;;;;;;1040153;28;20049;-75
2021/03/07 00:23:59;;;;;;;6.88;5.72;;;;;;;;;;1044663;28;20375;-75
2021/03/07 00:24:30;;;;;;;8.25;5.65;;;;;;;;;;1048313;28;20053;-75
2021/03/07 00:25:04;;;;;;;7.57;5.57;;;;;;;;;;1044915;28;20194;-75
2021/03/07 00:25:35;;;;;;;7.75;4.55;;;;;;;;;;1044788;28;20063;-75
2021/03/07 00:26:06;;;;;;;6.60;4.63;;;;;;;;;;1040361;28;20111;-75
2021/03/07 00:26:37;;;;;;;5.18;4.43;;;;;;;;;;1031379;28;20718;-75
2021/03/07 00:27:08;;;;;;;5.68;4.38;;;;;;;;;;1032146;28;20061;-75
2021/03/07 00:27:39;;;;;;;9.63;5.18;;;;;;;;;;1041662;28;20052;-76
2021/03/07 00:28:10;;;;;;;5.53;4.82;;;;;;;;;;1044750;28;20421;-75
2021/03/07 00:28:41;;;;;;;5.25;4.07;;;;;;;;;;1038324;28;20054;-75
2021/03/07 00:29:12;;;;;;;6.85;4.45;;;;;;;;;;1032576;28;20046;-75
2021/03/07 00:29:43;;;;;;;8.25;4.68;;;;;;;;;;1036290;28;20060;-75
2021/03/07 00:30:16;;;;;;;6.63;4.50;;;;;;;;;;1040981;28;20050;-75
2021/03/07 00:30:47;;;;;;;4.97;4.50;;;;;;;;;;1043633;28;20052;-75
2021/03/07 00:31:18;;;;;;;8.68;4.75;;;;;;;;;;1040194;28;20059;-75
2021/03/07 00:31:49;;;;;;;7.00;4.40;;;;;;;;;;1036264;28;20423;-75
2021/03/07 00:32:20;;;;;;;4.30;3.90;;;;;;;;;;1040690;28;20091;-75
2021/03/07 00:32:51;;;;;;;4.72;4.25;;;;;;;;;;1044905;28;20041;-75
2021/03/07 00:33:22;;;;;;;6.03;4.65;;;;;;;;;;1040343;28;20057;-75
2021/03/07 00:33:54;;;;;;;8.40;4.13;;;;;;;;;;1032611;28;20042;-75
2021/03/07 00:34:25;;;;;;;7.93;4.93;;;;;;;;;;1032147;28;20054;-75
2021/03/07 00:34:56;;;;;;;7.30;4.53;;;;;;;;;;1028467;28;20047;-75
2021/03/07 00:35:26;;;;;;;6.63;4.80;;;;;;;;;;1032154;28;20054;-75
2021/03/07 00:35:57;;;;;;;5.90;4.32;;;;;;;;;;1040434;28;20636;-75
2021/03/07 00:36:28;;;;;;;6.35;4.47;;;;;;;;;;1040539;28;20498;-75
2021/03/07 00:36:59;;;;;;;6.05;4.68;;;;;;;;;;1040234;28;20057;-75
2021/03/07 00:37:31;;;;;;;5.50;4.38;;;;;;;;;;1035863;28;20521;-75
2021/03/07 00:38:02;;;;;;;6.20;4.95;;;;;;;;;;1032055;28;20053;-75
2021/03/07 00:38:33;;;;;;;7.13;4.95;;;;;;;;;;1031222;28;20055;-75
2021/03/07 00:39:05;;;;;;;7.25;4.95;;;;;;;;;;1028448;28;20521;-75
2021/03/07 00:39:43;;;;;;;6.53;4.43;;;;;;;;;;1032578;28;20104;-74
2021/03/07 00:40:15;;;;;;;8.88;5.28;;;;;;;;;;1035417;28;20053;-75
2021/03/07 00:40:45;;;;;;;9.07;5.10;;;;;;;;;;1040163;28;20053;-75
2021/03/07 00:41:16;;;;;;;10.05;5.07;;;;;;;;;;1036424;28;20049;-74
2021/03/07 00:41:47;;;;;;;8.32;5.32;;;;;;;;;;1035101;28;20050;-75
2021/03/07 00:42:18;;;;;;;9.18;5.20;;;;;;;;;;1032103;28;20054;-75
2021/03/07 00:42:50;;;;;;;7.45;4.97;;;;;;;;;;1036236;28;20073;-75
2021/03/07 00:43:21;;;;;;;9.77;4.85;;;;;;;;;;1032844;28;20450;-76
2021/03/07 00:43:52;;;;;;;8.38;5.10;;;;;;;;;;1032527;28;20565;-75
2021/03/07 00:44:23;;;;;;;7.55;4.60;;;;;;;;;;1033148;28;20199;-75
2021/03/07 00:44:54;;;;;;;7.82;5.07;;;;;;;;;;1038101;28;20049;-75
2021/03/07 00:45:25;;;;;;;9.50;5.47;;;;;;;;;;1036221;28;20052;-74
2021/03/07 00:45:56;;;;;;;8.35;4.85;;;;;;;;;;1032131;28;20051;-75
2021/03/07 00:46:27;;;;;;;8.27;4.63;;;;;;;;;;1035249;28;20133;-75
2021/03/07 00:46:58;;;;;;;11.52;5.22;;;;;;;;;;1038854;28;20093;-75
2021/03/07 00:47:29;;;;;;;7.95;4.82;;;;;;;;;;1040619;28;20061;-76
2021/03/07 00:48:01;;;;;;;7.65;5.50;;;;;;;;;;1035737;28;20073;-76
2021/03/07 00:48:32;;;;;;;12.93;6.35;;;;;;;;;;1036761;28;20186;-75
2021/03/07 00:49:03;;;;;;;7.68;4.75;;;;;;;;;;1032419;28;20054;-75
2021/03/07 00:49:35;;;;;;;6.00;4.90;;;;;;;;;;1032056;28;20051;-75
2021/03/07 00:50:17;;;;;;;8.25;5.10;;;;;;;;;;1028170;28;20058;-75
2021/03/07 00:50:48;;;;;;;8.50;5.18;;;;;;;;;;1028062;28;20054;-75
2021/03/07 00:51:19;;;;;;;6.13;4.32;;;;;;;;;;1029912;28;20141;-75
2021/03/07 00:51:50;;;;;;;7.95;4.93;;;;;;;;;;1039703;28;20049;-75
2021/03/07 00:52:21;;;;;;;11.77;4.75;;;;;;;;;;1040619;28;20046;-76
2021/03/07 00:52:54;;;;;;;13.50;5.22;;;;;;;;;;1034812;28;20180;-75
2021/03/07 00:53:25;;;;;;;8.30;4.82;;;;;;;;;;1029429;28;20634;-75
2021/03/07 00:53:56;;;;;;;6.18;5.03;;;;;;;;;;1034643;28;20181;-75
2021/03/07 00:54:27;;;;;;;8.25;4.30;;;;;;;;;;1041461;28;20060;-75
2021/03/07 00:54:58;;;;;;;9.45;4.65;;;;;;;;;;1044723;28;20056;-75
2021/03/07 00:55:29;;;;;;;8.38;4.95;;;;;;;;;;1044679;28;20052;-75
2021/03/07 00:56:00;;;;;;;10.75;5.68;;;;;;;;;;1048150;28;20590;-75
2021/03/07 00:56:31;;;;;;;7.30;4.80;;;;;;;;;;1044541;28;20102;-75
2021/03/07 00:57:02;;;;;;;6.95;5.05;;;;;;;;;;1040534;28;20050;-75
2021/03/07 00:57:33;;;;;;;7.55;4.57;;;;;;;;;;1040043;28;20525;-75
2021/03/07 00:58:04;;;;;;;5.65;4.65;;;;;;;;;;1036155;28;20049;-75
2021/03/07 00:58:35;;;;;;;7.85;4.65;;;;;;;;;;1040502;28;20050;-75
2021/03/07 00:59:06;;;;;;;6.90;4.65;;;;;;;;;;1039445;28;20046;-74
2021/03/07 00:59:37;;;;;;;5.07;4.30;;;;;;;;;;1036095;28;20054;-75
2021/03/07 01:00:19;;;;;;;6.72;4.57;;;;;;;;;;1032468;28;20077;-75
2021/03/07 01:00:51;;;;;;;5.28;4.25;;;;;;;;;;1033829;28;20123;-76
2021/03/07 01:01:22;;;;;;;9.32;4.20;;;;;;;;;;1036186;28;20123;-75
2021/03/07 01:01:53;;;;;;;7.03;4.80;;;;;;;;;;1040104;28;20053;-75
2021/03/07 01:02:26;;;;;;;7.35;4.38;;;;;;;;;;1044386;28;20055;-75
2021/03/07 01:02:58;;;;;;;6.50;4.50;;;;;;;;;;1040034;28;20056;-75
2021/03/07 01:03:29;;;;;;;7.15;5.45;;;;;;;;;;1032131;28;20108;-75
2021/03/07 01:04:00;;;;;;;6.45;4.38;;;;;;;;;;1034022;28;20057;-75
2021/03/07 01:04:31;;;;;;;7.30;4.60;;;;;;;;;;1036464;28;20104;-75
2021/03/07 01:05:03;;;;;;;7.05;3.95;;;;;;;;;;1040403;28;20398;-75
2021/03/07 01:05:34;;;;;;;5.25;4.38;;;;;;;;;;1040947;28;20045;-75
2021/03/07 01:06:05;;;;;;;7.88;4.03;;;;;;;;;;1036906;28;20419;-75
2021/03/07 01:06:37;;;;;;;10.32;4.25;;;;;;;;;;1040385;28;20168;-75
2021/03/07 01:07:08;;;;;;;6.45;4.43;;;;;;;;;;1040139;28;20045;-75
2021/03/07 01:07:39;;;;;;;5.75;4.05;;;;;;;;;;1040396;28;20045;-76
2021/03/07 01:08:10;;;;;;;5.43;4.47;;;;;;;;;;1039896;28;20049;-75
2021/03/07 01:08:41;;;;;;;4.28;3.72;;;;;;;;;;1040779;28;20050;-75
2021/03/07 01:09:13;;;;;;;5.82;4.22;;;;;;;;;;1036410;28;20053;-75
2021/03/07 01:10:01;;;;;;;6.90;4.13;;;;;;;;;;1037824;28;20115;-75
2021/03/07 01:10:39;;;;;;;6.35;3.83;;;;;;;;;;1036255;28;20046;-75
2021/03/07 01:11:11;;;;;;;4.82;4.15;;;;;;;;;;1031423;28;20062;-75
2021/03/07 01:11:42;;;;;;;6.13;4.20;;;;;;;;;;1031772;28;20050;-76
2021/03/07 01:12:13;;;;;;;6.25;4.00;;;;;;;;;;1034999;28;20136;-76
2021/03/07 01:12:47;;;;;;;5.75;4.05;;;;;;;;;;1040765;28;20049;-75
2021/03/07 01:13:18;;;;;;;7.43;4.07;;;;;;;;;;1042018;28;20045;-75
2021/03/07 01:13:49;;;;;;;6.85;3.90;;;;;;;;;;1041173;28;20053;-76
2021/03/07 01:14:20;;;;;;;7.50;4.50;;;;;;;;;;1040187;28;20045;-75
2021/03/07 01:14:51;;;;;;;4.65;4.18;;;;;;;;;;1036527;28;20053;-75
2021/03/07 01:15:27;;;;;;;4.57;3.90;;;;;;;;;;1036235;28;20046;-75
2021/03/07 01:15:58;;;;;;;6.13;3.92;;;;;;;;;;1043166;28;20053;-75
2021/03/07 01:16:30;;;;;;;5.50;4.28;;;;;;;;;;1037068;28;20136;-75
2021/03/07 01:17:01;;;;;;;6.20;3.40;;;;;;;;;;1037313;28;20094;-76
2021/03/07 01:17:32;;;;;;;7.55;3.78;;;;;;;;;;1036615;28;20544;-75
2021/03/07 01:18:04;;;;;;;6.57;3.90;;;;;;;;;;1036041;28;20057;-75
2021/03/07 01:18:36;;;;;;;5.93;3.90;;;;;;;;;;1036190;28;20061;-75
2021/03/07 01:19:06;;;;;;;7.88;4.35;;;;;;;;;;1039623;28;20146;-75
2021/03/07 01:19:37;;;;;;;4.15;3.80;;;;;;;;;;1040853;28;20049;-76
2021/03/07 01:20:16;;;;;;;5.15;4.00;;;;;;;;;;1040469;28;20052;-75
2021/03/07 01:20:56;;;;;;;5.22;3.50;;;;;;;;;;1035659;28;20058;-75
2021/03/07 01:21:27;;;;;;;8.55;4.18;;;;;;;;;;1036233;28;20045;-75
2021/03/07 01:21:58;;;;;;;6.63;3.60;;;;;;;;;;1035626;28;20058;-76
2021/03/07 01:22:29;;;;;;;5.25;4.05;;;;;;;;;;1040476;28;20050;-76
2021/03/07 01:23:00;;;;;;;4.78;3.30;;;;;;;;;;1038238;28;20065;-76
2021/03/07 01:23:32;;;;;;;4.00;3.60;;;;;;;;;;1032269;28;20046;-75
2021/03/07 01:24:03;;;;;;;4.45;4.00;;;;;;;;;;1044059;28;20053;-75
2021/03/07 01:24:35;;;;;;;7.72;4.35;;;;;;;;;;1040231;28;20049;-76
2021/03/07 01:25:08;;;;;;;6.03;3.92;;;;;;;;;;1035955;28;20054;-75
2021/03/07 01:25:39;;;;;;;5.53;3.90;;;;;;;;;;1029118;28;20051;-75
2021/03/07 01:26:10;;;;;;;13.40;4.30;;;;;;;;;;1029196;28;20054;-76
2021/03/07 01:26:40;;;;;;;6.38;3.78;;;;;;;;;;1036719;28;20049;-75
2021/03/07 01:27:11;;;;;;;4.20;3.65;;;;;;;;;;1042815;28;20045;-76
2021/03/07 01:27:42;;;;;;;7.15;4.38;;;;;;;;;;1044279;28;20052;-75
2021/03/07 01:28:13;;;;;;;6.53;4.13;;;;;;;;;;1040050;28;20486;-75
2021/03/07 01:28:44;;;;;;;4.78;3.72;;;;;;;;;;1048405;28;20436;-75
2021/03/07 01:29:15;;;;;;;4.97;3.72;;;;;;;;;;1041285;28;20543;-75
2021/03/07 01:29:46;;;;;;;6.55;3.80;;;;;;;;;;1036135;28;20049;-76
2021/03/07 01:30:19;;;;;;;7.65;4.32;;;;;;;;;;1036402;28;20418;-76
2021/03/07 01:30:50;;;;;;;7.03;4.35;;;;;;;;;;1040246;28;20056;-75
2021/03/07 01:31:22;;;;;;;5.28;4.35;;;;;;;;;;1040344;28;20501;-76
2021/03/07 01:31:53;;;;;;;6.78;3.88;;;;;;;;;;1038167;28;20557;-76
2021/03/07 01:32:24;;;;;;;4.93;3.83;;;;;;;;;;1032215;28;20054;-76
2021/03/07 01:32:55;;;;;;;6.75;4.25;;;;;;;;;;1034897;28;20056;-75
2021/03/07 01:33:26;;;;;;;6.60;4.32;;;;;;;;;;1035484;28;20399;-75
2021/03/07 01:33:57;;;;;;;5.20;4.53;;;;;;;;;;1044276;28;20426;-75
2021/03/07 01:34:28;;;;;;;7.35;4.03;;;;;;;;;;1036194;28;20127;-75
2021/03/07 01:34:59;;;;;;;6.78;3.97;;;;;;;;;;1032062;28;20458;-77
2021/03/07 01:35:30;;;;;;;5.95;4.63;;;;;;;;;;1027995;28;20050;-75
2021/03/07 01:36:04;;;;;;;7.38;4.18;;;;;;;;;;1032439;28;20050;-75
2021/03/07 01:36:35;;;;;;;5.30;4.15;;;;;;;;;;1036017;28;20045;-75
2021/03/07 01:37:06;;;;;;;5.85;4.18;;;;;;;;;;1031962;28;20518;-76
2021/03/07 01:37:37;;;;;;;5.20;4.43;;;;;;;;;;1027876;28;20046;-76
2021/03/07 01:38:08;;;;;;;7.30;4.90;;;;;;;;;;1036302;28;20049;-75
2021/03/07 01:38:40;;;;;;;5.63;3.75;;;;;;;;;;1040215;28;20045;-75
2021/03/07 01:39:11;;;;;;;5.57;3.97;;;;;;;;;;1039930;28;20053;-75
2021/03/07 01:39:42;;;;;;;11.23;5.15;;;;;;;;;;1036245;28;20498;-75
2021/03/07 01:40:29;;;;;;;4.20;3.80;;;;;;;;;;1033570;28;20104;-75
2021/03/07 01:41:00;;;;;;;6.47;3.92;;;;;;;;;;1032030;28;20050;-76
2021/03/07 01:41:31;;;;;;;6.80;3.78;;;;;;;;;;1037454;28;20046;-75
2021/03/07 01:42:09;;;;;;;5.90;4.95;;;;;;;;;;1036195;28;20541;-77
2021/03/07 01:42:50;;;;;;;6.63;4.32;;;;;;;;;;1040711;28;20052;-76
2021/03/07 01:43:21;;;;;;;6.28;3.95;;;;;;;;;;1038388;28;20064;-75
2021/03/07 01:43:52;;;;;;;8.10;4.15;;;;;;;;;;1032019;28;20057;-75
2021/03/07 01:44:23;;;;;;;7.03;4.18;;;;;;;;;;1037575;28;20442;-75
2021/03/07 01:44:54;;;;;;;9.07;5.00;;;;;;;;;;1038481;28;20631;-75
2021/03/07 01:45:28;;;;;;;8.98;4.20;;;;;;;;;;1035312;28;20052;-75
2021/03/07 01:45:59;;;;;;;4.80;3.72;;;;;;;;;;1040101;28;20045;-75
2021/03/07 01:46:29;;;;;;;6.68;4.15;;;;;;;;;;1036736;28;20136;-75
2021/03/07 01:47:01;;;;;;;10.25;4.15;;;;;;;;;;1032720;28;20594;-75
2021/03/07 01:47:33;;;;;;;7.28;4.85;;;;;;;;;;1035597;28;20120;-75
2021/03/07 01:48:06;;;;;;;5.03;4.03;;;;;;;;;;1030700;28;20133;-76
2021/03/07 01:48:40;;;;;;;10.82;4.10;;;;;;;;;;1032185;28;20050;-75
2021/03/07 01:49:11;;;;;;;5.47;3.92;;;;;;;;;;1036371;28;20085;-75
2021/03/07 01:49:42;;;;;;;5.78;4.63;;;;;;;;;;1032020;28;20050;-75
2021/03/07 01:50:19;;;;;;;4.97;3.85;;;;;;;;;;1031848;28;20054;-75
2021/03/07 01:50:52;;;;;;;7.93;4.38;;;;;;;;;;1031937;28;20046;-75
2021/03/07 01:51:23;;;;;;;4.65;3.72;;;;;;;;;;1036314;28;20050;-75
2021/03/07 01:51:54;;;;;;;8.30;3.97;;;;;;;;;;1040096;28;20050;-75
2021/03/07 01:52:26;;;;;;;5.57;3.95;;;;;;;;;;1038205;28;20536;-76
2021/03/07 01:52:57;;;;;;;5.60;4.20;;;;;;;;;;1030408;28;20058;-75
2021/03/07 01:53:28;;;;;;;5.82;4.40;;;;;;;;;;1032162;28;20046;-75
2021/03/07 01:53:59;;;;;;;4.22;3.83;;;;;;;;;;1036420;28;20050;-75
2021/03/07 01:54:30;;;;;;;6.45;3.88;;;;;;;;;;1037973;28;20052;-75
2021/03/07 01:55:01;;;;;;;6.43;4.60;;;;;;;;;;1036054;28;20104;-76
2021/03/07 01:55:34;;;;;;;5.70;4.50;;;;;;;;;;1036110;28;20403;-76
2021/03/07 01:56:05;;;;;;;8.18;3.90;;;;;;;;;;1031975;28;20054;-76
2021/03/07 01:56:37;;;;;;;6.50;4.22;;;;;;;;;;1036771;28;20041;-75
2021/03/07 01:57:10;;;;;;;5.28;4.47;;;;;;;;;;1036710;28;20057;-75
2021/03/07 01:57:42;;;;;;;6.47;4.28;;;;;;;;;;1041209;28;20052;-76
2021/03/07 01:58:25;;;;;;;6.75;4.13;;;;;;;;;;1040515;28;20060;-76
2021/03/07 01:58:57;;;;;;;5.55;4.15;;;;;;;;;;1040165;28;20436;-75
2021/03/07 01:59:30;;;;;;;5.55;4.03;;;;;;;;;;1040079;28;20049;-76
2021/03/07 02:00:02;;;;;;;6.60;4.30;;;;;;;;;;1034220;28;20530;-75
2021/03/07 02:00:34;;;;;;;4.38;3.47;;;;;;;;;;1031992;28;20562;-75
2021/03/07 02:01:06;;;;;;;5.85;3.75;;;;;;;;;;1034463;28;20094;-76
2021/03/07 02:01:37;;;;;;;5.25;4.05;;;;;;;;;;1027984;28;20128;-75
2021/03/07 02:02:08;;;;;;;8.63;4.35;;;;;;;;;;1032063;28;20104;-77
2021/03/07 02:02:40;;;;;;;4.95;4.32;;;;;;;;;;1032323;28;20046;-76
2021/03/07 02:03:11;;;;;;;5.60;3.90;;;;;;;;;;1041093;28;20108;-75
2021/03/07 02:03:50;;;;;;;6.93;4.47;;;;;;;;;;1044575;28;20379;-75
2021/03/07 02:04:21;;;;;;;5.80;4.07;;;;;;;;;;1039738;28;20056;-75
2021/03/07 02:04:53;;;;;;;5.95;4.45;;;;;;;;;;1044399;28;20045;-75
2021/03/07 02:05:25;;;;;;;5.68;4.10;;;;;;;;;;1041455;28;20049;-76
2021/03/07 02:05:56;;;;;;;6.47;4.82;;;;;;;;;;1038630;28;20045;-76
2021/03/07 02:06:27;;;;;;;5.38;3.78;;;;;;;;;;1032570;28;20050;-75
2021/03/07 02:07:02;;;;;;;5.63;4.22;;;;;;;;;;1036021;28;20077;-75
2021/03/07 02:07:33;;;;;;;4.47;3.92;;;;;;;;;;1039292;28;20056;-75
2021/03/07 02:08:05;;;;;;;6.93;4.28;;;;;;;;;;1040096;28;20041;-75
2021/03/07 02:08:35;;;;;;;5.97;3.75;;;;;;;;;;1038197;28;20053;-75
2021/03/07 02:09:06;;;;;;;7.60;3.90;;;;;;;;;;1033309;28;20125;-75
2021/03/07 02:09:37;;;;;;;7.80;4.45;;;;;;;;;;1035667;28;20065;-75
2021/03/07 02:10:15;;;;;;;6.80;4.32;;;;;;;;;;1036329;28;20050;-75
2021/03/07 02:10:59;;;;;;;6.43;4.47;;;;;;;;;;1033748;28;20103;-75
2021/03/07 02:11:31;;;;;;;3.97;3.53;;;;;;;;;;1038145;28;20050;-76
2021/03/07 02:12:02;;;;;;;6.60;3.78;;;;;;;;;;1040181;28;20118;-75
2021/03/07 02:12:33;;;;;;;5.97;4.50;;;;;;;;;;1038304;28;20109;-75
2021/03/07 02:13:11;;;;;;;4.82;4.22;;;;;;;;;;1040611;28;20433;-75
2021/03/07 02:13:43;;;;;;;6.93;4.53;;;;;;;;;;1041452;28;20052;-75
2021/03/07 02:14:14;;;;;;;8.55;4.93;;;;;;;;;;1037733;28;20434;-75
2021/03/07 02:14:49;;;;;;;7.28;4.95;;;;;;;;;;1039324;28;20140;-75
2021/03/07 02:15:21;;;;;;;13.45;4.63;;;;;;;;;;1035963;28;20058;-75
2021/03/07 02:16:10;;;;;;;6.13;4.50;;;;;;;;;;1027940;28;20071;-75
2021/03/07 02:16:42;;;;;;;6.57;4.45;;;;;;;;;;1035102;28;20077;-75
2021/03/07 02:17:13;;;;;;;6.22;4.25;;;;;;;;;;1032036;28;20050;-75
2021/03/07 02:17:46;;;;;;;10.13;4.75;;;;;;;;;;1033708;28;20570;-75
2021/03/07 02:18:18;;;;;;;5.90;3.90;;;;;;;;;;1040151;28;20517;-75
2021/03/07 02:18:51;;;;;;;7.97;5.00;;;;;;;;;;1035585;28;20053;-75
2021/03/07 02:19:35;;;;;;;16.05;4.90;;;;;;;;;;1040096;28;20157;-77
2021/03/07 02:20:08;;;;;;;6.38;4.65;;;;;;;;;;1034503;28;20189;-75
2021/03/07 02:20:46;;;;;;;5.55;4.20;;;;;;;;;;1038257;28;20049;-75
2021/03/07 02:21:23;;;;;;;8.18;6.65;;;;;;;;;;1036039;28;20050;-76
2021/03/07 02:21:57;;;;;;;9.73;4.72;;;;;;;;;;1036970;28;20049;-75
2021/03/07 02:22:35;;;;;;;8.15;4.97;;;;;;;;;;1035901;28;20518;-76
2021/03/07 02:23:13;;;;;;;8.82;5.47;;;;;;;;;;1032070;28;20054;-76
2021/03/07 02:24:03;;;;;;;6.22;4.47;;;;;;;;;;1031894;28;20191;-75
2021/03/07 02:24:34;;;;;;;8.18;4.35;;;;;;;;;;1032258;28;20050;-76
2021/03/07 02:25:07;;;;;;;10.27;5.10;;;;;;;;;;1035828;28;20073;-75
2021/03/07 02:25:38;;;;;;;8.40;5.57;;;;;;;;;;1037984;28;20061;-75
2021/03/07 02:26:09;;;;;;;6.80;4.72;;;;;;;;;;1036543;28;20053;-75
2021/03/07 02:26:44;;;;;;;10.32;5.63;;;;;;;;;;1040333;28;20097;-75
2021/03/07 02:27:15;;;;;;;14.30;6.25;;;;;;;;;;1042079;28;20056;-75
2021/03/07 02:27:46;;;;;;;9.50;5.65;;;;;;;;;;1043731;28;20058;-75
2021/03/07 02:28:19;;;;;;;8.77;6.25;;;;;;;;;;1045282;28;20374;-75
2021/03/07 02:28:50;;;;;;;7.20;5.68;;;;;;;;;;1039856;28;20046;-76
2021/03/07 02:29:22;;;;;;;9.52;6.47;;;;;;;;;;1040109;28;20049;-76
2021/03/07 02:29:53;;;;;;;14.10;6.60;;;;;;;;;;1028413;28;20122;-76
2021/03/07 02:30:25;;;;;;;11.40;7.28;;;;;;;;;;1032403;28;20054;-75
2021/03/07 02:30:56;;;;;;;13.43;7.43;;;;;;;;;;1036777;28;20053;-75
2021/03/07 02:31:27;;;;;;;14.52;9.00;;;;;;;;;;1044629;28;20131;-76
2021/03/07 02:32:14;;;;;;;16.67;9.35;;;;;;;;;;1041611;28;20053;-76
2021/03/07 02:32:52;;;;;;;15.48;8.50;;;;;;;;;;1039861;28;20093;-75
2021/03/07 02:33:31;;;;;;;13.43;8.40;;;;;;;;;;1040471;28;20054;-75
2021/03/07 02:34:10;;;;;;;15.70;8.50;;;;;;;;;;1039949;28;20065;-75
2021/03/07 02:34:46;;;;;;;19.35;9.50;;;;;;;;;;1037717;28;20045;-75
2021/03/07 02:35:23;;;;;;;14.65;8.77;;;;;;;;;;1042528;28;20113;-75
2021/03/07 02:36:14;;;;;;;18.58;10.05;;;;;;;;;;1048136;28;20424;-76
2021/03/07 02:36:49;;;;;;;16.52;7.72;;;;;;;;;;1038452;28;20413;-75
2021/03/07 02:37:21;;;;;;;12.00;7.25;;;;;;;;;;1036004;28;20053;-75
2021/03/07 02:37:55;;;;;;;17.60;7.28;;;;;;;;;;1039508;28;20049;-75
2021/03/07 02:38:30;;;;;;;9.98;6.85;;;;;;;;;;1042189;28;20052;-76
2021/03/07 02:39:03;;;;;;;14.02;7.00;;;;;;;;;;1040018;28;20086;-75
2021/03/07 02:39:37;;;;;;;12.13;7.18;;;;;;;;;;1040143;28;20056;-75
2021/03/07 02:40:11;;;;;;;12.48;6.40;;;;;;;;;;1044514;28;20173;-76
2021/03/07 02:40:43;;;;;;;13.07;6.60;;;;;;;;;;1042781;28;20045;-76
2021/03/07 02:41:15;;;;;;;12.20;6.15;;;;;;;;;;1031848;28;20051;-75
2021/03/07 02:41:45;;;;;;;11.48;5.90;;;;;;;;;;1037392;28;20049;-76
2021/03/07 02:42:19;;;;;;;11.38;5.90;;;;;;;;;;1032029;28;20422;-76
2021/03/07 02:42:51;;;;;;;10.00;5.50;;;;;;;;;;1036742;28;20045;-76
2021/03/07 02:43:22;;;;;;;7.13;4.78;;;;;;;;;;1036746;28;20046;-76
2021/03/07 02:43:54;;;;;;;9.77;4.85;;;;;;;;;;1039306;28;20097;-77
2021/03/07 02:44:29;;;;;;;7.15;4.95;;;;;;;;;;1035868;28;20054;-75
2021/03/07 02:45:08;;;;;;;6.35;4.75;;;;;;;;;;1037167;28;20042;-75
2021/03/07 02:45:41;;;;;;;7.00;4.82;;;;;;;;;;1039934;28;20059;-76
2021/03/07 02:46:15;;;;;;;10.07;5.03;;;;;;;;;;1040117;28;20045;-76
2021/03/07 02:46:47;;;;;;;6.60;4.20;;;;;;;;;;1043527;28;20060;-76
2021/03/07 02:47:19;;;;;;;8.00;4.60;;;;;;;;;;1035831;28;20054;-76
2021/03/07 02:47:53;;;;;;;7.03;4.63;;;;;;;;;;1034321;28;20132;-75
2021/03/07 02:48:26;;;;;;;8.18;4.25;;;;;;;;;;1038425;28;20042;-76
2021/03/07 02:48:59;;;;;;;8.45;5.05;;;;;;;;;;1039587;28;20054;-76
2021/03/07 02:49:32;;;;;;;8.07;4.32;;;;;;;;;;1040135;28;20050;-75
2021/03/07 02:50:09;;;;;;;6.20;4.18;;;;;;;;;;1037222;28;20069;-76
2021/03/07 02:50:41;;;;;;;6.35;4.63;;;;;;;;;;1035906;28;20046;-76
2021/03/07 02:51:13;;;;;;;6.20;4.82;;;;;;;;;;1033273;28;20498;-76
2021/03/07 02:51:46;;;;;;;7.72;4.78;;;;;;;;;;1037530;28;20058;-76
2021/03/07 02:52:17;;;;;;;6.28;4.63;;;;;;;;;;1032823;28;20109;-76
2021/03/07 02:53:03;;;;;;;9.02;4.20;;;;;;;;;;1032757;28;20046;-78
2021/03/07 02:53:35;;;;;;;7.07;4.85;;;;;;;;;;1038613;28;20053;-75
2021/03/07 02:54:08;;;;;;;8.82;4.95;;;;;;;;;;1036023;28;20054;-75
2021/03/07 02:54:41;;;;;;;8.93;4.75;;;;;;;;;;1038835;28;20506;-76
2021/03/07 02:55:12;;;;;;;7.63;4.22;;;;;;;;;;1032834;28;20061;-76
2021/03/07 02:55:46;;;;;;;5.55;4.60;;;;;;;;;;1032148;28;20043;-76
2021/03/07 02:56:18;;;;;;;10.65;4.72;;;;;;;;;;1036008;28;20398;-75
2021/03/07 02:56:51;;;;;;;7.13;4.53;;;;;;;;;;1035928;28;20072;-75
2021/03/07 02:57:24;;;;;;;7.28;5.05;;;;;;;;;;1031771;28;20050;-76
2021/03/07 02:57:56;;;;;;;7.03;4.18;;;;;;;;;;1041895;28;20045;-76
2021/03/07 02:58:27;;;;;;;6.30;4.03;;;;;;;;;;1044141;28;20041;-75
2021/03/07 02:59:01;;;;;;;5.35;4.55;;;;;;;;;;1036617;28;20050;-76
2021/03/07 02:59:34;;;;;;;8.88;4.93;;;;;;;;;;1037853;28;20057;-75
2021/03/07 03:00:08;;;;;;;5.45;4.22;;;;;;;;;;1034578;28;20045;-76
2021/03/07 03:00:49;;;;;;;4.93;4.35;;;;;;;;;;1029229;28;20059;-76
2021/03/07 03:01:21;;;;;;;6.18;4.38;;;;;;;;;;1036243;28;20181;-76
2021/03/07 03:01:55;;;;;;;7.57;4.30;;;;;;;;;;1040108;28;20053;-76
2021/03/07 03:02:29;;;;;;;7.38;4.50;;;;;;;;;;1035981;28;20490;-76
2021/03/07 03:03:01;;;;;;;11.65;4.00;;;;;;;;;;1032761;28;20143;-77
2021/03/07 03:03:34;;;;;;;7.93;4.28;;;;;;;;;;1040675;28;20140;-76
2021/03/07 03:04:09;;;;;;;5.72;4.20;;;;;;;;;;1040590;28;20072;-75
2021/03/07 03:04:40;;;;;;;7.72;4.75;;;;;;;;;;1040852;28;20045;-75
2021/03/07 03:05:12;;;;;;;7.43;4.63;;;;;;;;;;1037720;28;20046;-76
2021/03/07 03:05:43;;;;;;;6.25;4.47;;;;;;;;;;1040695;28;20049;-75
2021/03/07 03:06:16;;;;;;;6.57;4.60;;;;;;;;;;1038439;28;20053;-76
2021/03/07 03:06:48;;;;;;;6.70;4.60;;;;;;;;;;1032677;28;20054;-76
2021/03/07 03:07:20;;;;;;;5.45;4.13;;;;;;;;;;1031379;28;20506;-75
2021/03/07 03:07:51;;;;;;;9.32;4.03;;;;;;;;;;1037413;28;20065;-76
2021/03/07 03:08:23;;;;;;;7.00;4.07;;;;;;;;;;1032542;28;20934;-76
2021/03/07 03:08:55;;;;;;;6.55;5.03;;;;;;;;;;1033287;28;20419;-76
2021/03/07 03:09:29;;;;;;;8.20;4.82;;;;;;;;;;1036183;28;20405;-76
2021/03/07 03:10:03;;;;;;;7.03;4.32;;;;;;;;;;1044697;28;20071;-76
2021/03/07 03:10:35;;;;;;;10.23;5.65;;;;;;;;;;1040820;28;20049;-76
2021/03/07 03:11:08;;;;;;;7.68;5.22;;;;;;;;;;1039774;28;20045;-76
2021/03/07 03:11:40;;;;;;;8.55;4.43;;;;;;;;;;1032651;28;20427;-76
2021/03/07 03:12:11;;;;;;;6.80;4.82;;;;;;;;;;1035806;28;20502;-76
2021/03/07 03:12:45;;;;;;;6.43;4.00;;;;;;;;;;1040729;28;20049;-76
2021/03/07 03:13:17;;;;;;;8.15;4.88;;;;;;;;;;1036382;28;20049;-76
2021/03/07 03:13:49;;;;;;;6.35;4.47;;;;;;;;;;1036678;28;20053;-76
2021/03/07 03:14:21;;;;;;;11.55;4.75;;;;;;;;;;1040634;28;20519;-76
2021/03/07 03:14:52;;;;;;;7.28;3.95;;;;;;;;;;1040689;28;20049;-75